Time;durP1;ratioP1;P1;durP2;ratioP2;P2;SDS_P1;SDS_P2;PMS_P1;PMS_P2;Temp;Humidity;BMP_temperature;BMP_pressure;BME280_temperature;BME280_humidity;BME280_pressure;Samples;Min_cycle;Max_cycle;Signal;HPM_P1;HPM_P2
2021/01/17 00:00:15;;;;;;;7.50;5.30;;;15.40;56.90;;;;;;5014517;28;20369;-48
2021/01/17 00:02:43;;;;;;;5.90;5.30;;;15.30;56.80;;;;;;5014450;28;20022;-48
2021/01/17 00:05:10;;;;;;;6.15;5.30;;;15.30;56.90;;;;;;5014693;28;20044;-50
2021/01/17 00:07:37;;;;;;;6.28;5.35;;;15.30;56.90;;;;;;5014200;28;20018;-47
2021/01/17 00:10:09;;;;;;;8.30;6.07;;;15.30;57.00;;;;;;4996954;28;20116;-47
2021/01/17 00:12:36;;;;;;;7.50;5.15;;;15.20;56.90;;;;;;5014286;28;20030;-47
2021/01/17 00:15:04;;;;;;;6.45;5.45;;;15.20;57.00;;;;;;5014532;28;20050;-47
2021/01/17 00:17:30;;;;;;;5.90;5.30;;;15.20;57.00;;;;;;5014324;28;20105;-49
2021/01/17 00:19:55;;;;;;;6.68;5.15;;;15.10;56.90;;;;;;4996508;28;20201;-48
2021/01/17 00:22:21;;;;;;;5.68;5.15;;;15.10;57.00;;;;;;5014339;28;20065;-48
2021/01/17 00:24:47;;;;;;;5.25;4.75;;;15.40;57.20;;;;;;4996441;28;20030;-49
2021/01/17 00:27:16;;;;;;;6.32;5.30;;;15.10;57.00;;;;;;5014314;28;20028;-47
2021/01/17 00:29:42;;;;;;;6.57;5.18;;;15.20;57.10;;;;;;5014251;28;20026;-47
2021/01/17 00:32:12;;;;;;;6.10;5.50;;;15.10;57.10;;;;;;5013894;28;20025;-47
2021/01/17 00:34:38;;;;;;;6.73;5.57;;;15.00;57.00;;;;;;5014191;28;20032;-49
2021/01/17 00:37:04;;;;;;;6.43;5.70;;;15.00;57.00;;;;;;5014958;28;20056;-47
2021/01/17 00:39:30;;;;;;;6.63;5.10;;;15.00;57.10;;;;;;5013998;28;20042;-47
2021/01/17 00:41:56;;;;;;;6.20;5.35;;;14.90;57.00;;;;;;5013964;28;20060;-50
2021/01/17 00:44:22;;;;;;;5.68;5.07;;;15.00;57.10;;;;;;5013434;28;20054;-46
2021/01/17 00:46:47;;;;;;;5.28;4.78;;;14.80;57.00;;;;;;5013855;28;20029;-48
2021/01/17 00:49:13;;;;;;;6.03;5.43;;;14.90;57.00;;;;;;5013561;28;20488;-48
2021/01/17 00:51:41;;;;;;;7.05;5.65;;;14.90;57.10;;;;;;5013462;28;20483;-47
2021/01/17 00:54:08;;;;;;;5.85;5.28;;;14.90;57.10;;;;;;4995823;28;20481;-48
2021/01/17 00:56:34;;;;;;;6.10;5.50;;;14.90;57.20;;;;;;5013380;28;20506;-47
2021/01/17 00:58:59;;;;;;;5.65;5.15;;;14.80;57.10;;;;;;5013343;28;20026;-48
2021/01/17 01:01:25;;;;;;;6.47;5.50;;;14.80;57.20;;;;;;5013459;28;20022;-47
2021/01/17 01:03:50;;;;;;;6.45;5.68;;;14.80;57.20;;;;;;5013602;28;20032;-50
2021/01/17 01:06:19;;;;;;;5.63;4.93;;;14.80;57.20;;;;;;5013598;28;20487;-48
2021/01/17 01:08:46;;;;;;;5.95;5.35;;;14.80;57.20;;;;;;5013279;28;20111;-49
2021/01/17 01:11:20;;;;;;;5.60;5.05;;;14.70;57.20;;;;;;5013224;28;20041;-49
2021/01/17 01:13:45;;;;;;;5.05;4.65;;;14.90;57.30;;;;;;5013111;28;20018;-47
2021/01/17 01:16:13;;;;;;;5.53;4.88;;;14.70;57.20;;;;;;5013239;28;20037;-47
2021/01/17 01:18:38;;;;;;;6.57;5.15;;;14.70;57.10;;;;;;5013159;28;20025;-48
2021/01/17 01:21:04;;;;;;;6.25;5.18;;;14.70;57.20;;;;;;5013185;28;20472;-48
2021/01/17 01:23:29;;;;;;;5.93;5.30;;;14.70;57.20;;;;;;5013391;28;20026;-49
2021/01/17 01:25:58;;;;;;;5.82;5.10;;;14.70;57.20;;;;;;5012982;28;20026;-47
2021/01/17 01:28:30;;;;;;;5.18;4.68;;;14.70;57.20;;;;;;5013188;28;20040;-48
2021/01/17 01:30:56;;;;;;;6.32;4.90;;;14.60;57.20;;;;;;5013153;28;20421;-47
2021/01/17 01:33:22;;;;;;;5.65;5.15;;;14.60;57.20;;;;;;5013124;28;20126;-48
2021/01/17 01:35:49;;;;;;;6.00;5.40;;;14.60;57.30;;;;;;5012943;28;20075;-48
2021/01/17 01:38:15;;;;;;;5.60;5.10;;;14.60;57.30;;;;;;5013908;28;20558;-49
2021/01/17 01:40:51;;;;;;;5.68;4.95;;;14.50;57.20;;;;;;5012685;28;20030;-48
2021/01/17 01:43:23;;;;;;;5.93;5.32;;;14.60;57.30;;;;;;5012668;28;20026;-47
2021/01/17 01:45:50;;;;;;;6.15;5.05;;;14.50;57.20;;;;;;5012927;28;20053;-48
2021/01/17 01:48:17;;;;;;;5.63;5.03;;;14.50;57.20;;;;;;5012817;28;20428;-47
2021/01/17 01:50:44;;;;;;;5.10;4.60;;;14.50;57.30;;;;;;5012566;28;20052;-49
2021/01/17 01:53:10;;;;;;;5.43;4.90;;;14.50;57.30;;;;;;5012692;28;20029;-46
2021/01/17 01:55:35;;;;;;;6.00;5.35;;;14.50;57.30;;;;;;5012580;28;20022;-48
2021/01/17 01:58:06;;;;;;;4.82;4.32;;;14.50;57.30;;;;;;5012451;28;20034;-47
2021/01/17 02:00:33;;;;;;;5.90;4.80;;;14.60;57.40;;;;;;5012543;28;20073;-48
2021/01/17 02:02:59;;;;;;;6.32;5.45;;;14.50;57.30;;;;;;5012519;28;20022;-48
2021/01/17 02:05:24;;;;;;;6.22;4.57;;;14.40;57.30;;;;;;5012300;28;20392;-48
2021/01/17 02:08:12;;;;;;;6.38;5.35;;;14.40;57.30;;;;;;5012525;28;20019;-47
2021/01/17 02:10:38;;;;;;;5.65;5.07;;;14.40;57.30;;;;;;5012425;28;20377;-47
2021/01/17 02:13:22;;;;;;;5.82;5.05;;;14.40;57.40;;;;;;5011976;28;20026;-48
2021/01/17 02:15:52;;;;;;;5.10;4.70;;;14.30;57.30;;;;;;5012181;28;20720;-47
2021/01/17 02:18:21;;;;;;;6.15;5.03;;;14.30;57.30;;;;;;5012383;28;20037;-48
2021/01/17 02:20:50;;;;;;;5.53;5.00;;;14.30;57.40;;;;;;5012258;28;20099;-47
2021/01/17 02:23:25;;;;;;;5.15;4.53;;;14.30;57.40;;;;;;5012090;28;20032;-47
2021/01/17 02:25:51;;;;;;;5.88;4.60;;;14.30;57.40;;;;;;5011864;28;20030;-47
2021/01/17 02:28:19;;;;;;;5.25;4.70;;;14.30;58.10;;;;;;5012000;28;20366;-48
2021/01/17 02:30:51;;;;;;;5.63;5.13;;;14.30;57.50;;;;;;5012228;28;20093;-49
2021/01/17 02:33:32;;;;;;;5.35;4.85;;;14.30;57.50;;;;;;5011958;28;20476;-48
2021/01/17 02:36:17;;;;;;;5.20;4.70;;;14.20;57.40;;;;;;5011936;28;20076;-47
2021/01/17 02:39:06;;;;;;;5.13;4.68;;;14.20;57.50;;;;;;5012201;28;20130;-47
2021/01/17 02:41:54;;;;;;;5.95;5.20;;;14.20;57.40;;;;;;5012063;28;20069;-49
2021/01/17 02:44:20;;;;;;;4.38;3.97;;;14.20;57.50;;;;;;5011955;28;20100;-48
2021/01/17 02:46:46;;;;;;;5.07;4.57;;;14.20;57.50;;;;;;5011939;28;20472;-47
2021/01/17 02:49:12;;;;;;;5.15;4.65;;;14.20;57.50;;;;;;5011940;28;20029;-47
2021/01/17 02:51:38;;;;;;;7.18;4.88;;;14.20;57.50;;;;;;5012128;28;20022;-48
2021/01/17 02:54:17;;;;;;;5.05;4.55;;;14.10;57.50;;;;;;5012192;28;20030;-47
2021/01/17 02:56:49;;;;;;;4.85;4.35;;;14.10;57.50;;;;;;5011979;28;20061;-47
2021/01/17 02:59:18;;;;;;;5.28;4.45;;;14.10;57.60;;;;;;5011811;28;20022;-47
2021/01/17 03:01:48;;;;;;;5.18;4.68;;;14.10;57.60;;;;;;5012033;28;20117;-49
2021/01/17 03:04:37;;;;;;;5.25;4.22;;;14.10;57.60;;;;;;5011824;28;20029;-47
2021/01/17 03:07:11;;;;;;;5.50;4.60;;;14.10;57.70;;;;;;5011590;28;20492;-48
2021/01/17 03:09:38;;;;;;;5.00;4.50;;;14.00;57.60;;;;;;5011741;28;20068;-48
2021/01/17 03:12:04;;;;;;;4.82;4.43;;;14.10;57.70;;;;;;5011620;28;20030;-46
2021/01/17 03:14:34;;;;;;;5.30;4.80;;;14.00;57.60;;;;;;5011805;28;20386;-48
2021/01/17 03:17:05;;;;;;;5.97;4.82;;;14.00;57.60;;;;;;5011651;28;20477;-49
2021/01/17 03:19:30;;;;;;;4.80;4.30;;;14.00;57.60;;;;;;5011737;28;20030;-48
2021/01/17 03:21:56;;;;;;;5.85;4.45;;;14.00;57.70;;;;;;5011630;28;20029;-47
2021/01/17 03:24:22;;;;;;;4.85;4.35;;;14.00;57.70;;;;;;5012465;28;20032;-48
2021/01/17 03:26:47;;;;;;;5.75;4.78;;;13.90;57.60;;;;;;5015152;28;20018;-48
2021/01/17 03:29:13;;;;;;;4.88;4.20;;;14.00;57.70;;;;;;5015100;28;20377;-47
2021/01/17 03:31:38;;;;;;;4.45;3.92;;;13.90;57.70;;;;;;5015389;28;20133;-47
2021/01/17 03:34:04;;;;;;;4.57;4.18;;;13.90;57.70;;;;;;5015022;28;20014;-48
2021/01/17 03:36:29;;;;;;;4.55;4.15;;;13.90;57.70;;;;;;5016064;28;20046;-48
2021/01/17 03:38:55;;;;;;;4.53;4.13;;;14.00;57.70;;;;;;5014855;28;20120;-48
2021/01/17 03:41:23;;;;;;;4.72;4.32;;;14.00;57.60;;;;;;5015152;28;20033;-49
2021/01/17 03:43:48;;;;;;;4.35;3.95;;;13.90;57.60;;;;;;5015148;28;20018;-48
2021/01/17 03:46:14;;;;;;;4.38;3.92;;;13.90;57.90;;;;;;5014754;28;20034;-49
2021/01/17 03:48:40;;;;;;;4.03;3.63;;;14.10;58.00;;;;;;5014845;28;20021;-47
2021/01/17 03:51:05;;;;;;;4.63;3.95;;;14.10;57.60;;;;;;5014935;28;20026;-48
2021/01/17 03:53:31;;;;;;;5.50;4.43;;;14.10;57.60;;;;;;5014699;28;20030;-47
2021/01/17 03:55:56;;;;;;;4.32;3.92;;;14.10;57.90;;;;;;5014838;28;20032;-47
2021/01/17 03:58:22;;;;;;;4.03;3.70;;;14.20;58.00;;;;;;5014906;28;20106;-48
2021/01/17 04:00:47;;;;;;;4.07;3.47;;;14.20;57.70;;;;;;5014603;28;20070;-48
2021/01/17 04:03:13;;;;;;;4.25;3.85;;;14.10;57.80;;;;;;5014784;28;20384;-48
2021/01/17 04:05:39;;;;;;;3.88;3.58;;;14.20;58.00;;;;;;5014731;28;20026;-47
2021/01/17 04:08:05;;;;;;;4.47;4.00;;;14.20;58.00;;;;;;5014674;28;20384;-48
2021/01/17 04:10:30;;;;;;;4.20;3.80;;;14.10;57.80;;;;;;5014640;28;20030;-48
2021/01/17 04:12:56;;;;;;;4.10;3.80;;;14.20;57.80;;;;;;5014413;28;20064;-48
2021/01/17 04:15:21;;;;;;;3.78;3.47;;;14.20;58.00;;;;;;5014325;28;20053;-47
2021/01/17 04:17:47;;;;;;;3.70;3.40;;;14.30;58.00;;;;;;5014531;28;20022;-48
2021/01/17 04:20:13;;;;;;;3.60;3.20;;;14.20;57.90;;;;;;5014082;28;20030;-46
2021/01/17 04:22:39;;;;;;;4.72;3.92;;;14.30;57.90;;;;;;5014439;28;20029;-48
2021/01/17 04:25:05;;;;;;;4.05;3.30;;;14.20;58.00;;;;;;5014040;28;20350;-48
2021/01/17 04:27:31;;;;;;;4.45;3.45;;;14.20;58.00;;;;;;5014052;28;20065;-47
2021/01/17 04:29:56;;;;;;;3.53;3.20;;;14.30;58.00;;;;;;5014281;28;20026;-50
2021/01/17 04:32:22;;;;;;;4.07;3.67;;;14.20;57.80;;;;;;5014219;28;20496;-48
2021/01/17 04:34:48;;;;;;;4.03;3.60;;;14.20;58.00;;;;;;5013791;28;20026;-48
2021/01/17 04:37:13;;;;;;;4.15;3.70;;;14.30;58.00;;;;;;5015206;28;20125;-49
2021/01/17 04:39:39;;;;;;;6.47;4.18;;;14.30;58.00;;;;;;5014037;28;20485;-47
2021/01/17 04:42:08;;;;;;;3.78;3.40;;;14.30;57.90;;;;;;5014163;28;20018;-47
2021/01/17 04:44:38;;;;;;;4.07;3.58;;;14.20;57.90;;;;;;5013839;28;20450;-47
2021/01/17 04:47:05;;;;;;;3.80;3.28;;;14.30;58.00;;;;;;5014138;28;20384;-48
2021/01/17 04:49:39;;;;;;;3.63;3.00;;;14.30;57.90;;;;;;5013990;28;20028;-47
2021/01/17 04:52:07;;;;;;;4.03;3.35;;;14.20;57.80;;;;;;5013899;28;20026;-47
2021/01/17 04:54:33;;;;;;;3.40;2.95;;;14.20;58.00;;;;;;4995909;28;20049;-47
2021/01/17 04:57:02;;;;;;;4.35;3.88;;;14.30;58.00;;;;;;5013805;28;20050;-48
2021/01/17 04:59:36;;;;;;;3.75;3.05;;;14.30;57.90;;;;;;4996474;28;20036;-48
2021/01/17 05:02:28;;;;;;;4.63;3.75;;;14.30;57.90;;;;;;5013407;28;20505;-47
2021/01/17 05:05:02;;;;;;;3.63;3.33;;;14.20;57.90;;;;;;5013608;28;20026;-49
2021/01/17 05:07:35;;;;;;;3.17;2.88;;;14.20;57.90;;;;;;5013316;28;20072;-49
2021/01/17 05:10:11;;;;;;;3.35;3.00;;;14.20;57.90;;;;;;5013563;28;20110;-50
2021/01/17 05:12:50;;;;;;;3.67;3.03;;;14.20;58.00;;;;;;5013511;28;20026;-47
2021/01/17 05:15:20;;;;;;;3.10;2.70;;;14.10;58.00;;;;;;5006036;28;20030;-47
2021/01/17 05:17:45;;;;;;;3.70;3.30;;;14.10;58.10;;;;;;5013409;28;20288;-48
2021/01/17 05:20:12;;;;;;;4.70;2.90;;;14.10;58.10;;;;;;5012953;28;20514;-47
2021/01/17 05:22:38;;;;;;;3.90;2.83;;;14.00;58.10;;;;;;5013078;28;20018;-47
2021/01/17 05:25:07;;;;;;;3.97;2.80;;;14.00;58.10;;;;;;5012873;28;20469;-48
2021/01/17 05:27:36;;;;;;;3.10;2.80;;;14.00;58.10;;;;;;5013030;28;20017;-47
2021/01/17 05:30:06;;;;;;;3.75;3.08;;;14.00;58.10;;;;;;5013127;28;20040;-48
2021/01/17 05:32:32;;;;;;;3.38;3.08;;;13.90;58.00;;;;;;5012779;28;20432;-48
2021/01/17 05:34:59;;;;;;;3.78;3.08;;;13.90;58.10;;;;;;5012870;28;20129;-48
2021/01/17 05:37:25;;;;;;;3.38;2.92;;;13.90;58.10;;;;;;5014041;28;20050;-47
2021/01/17 05:39:56;;;;;;;3.42;3.13;;;13.90;58.10;;;;;;5012944;28;20065;-46
2021/01/17 05:42:22;;;;;;;3.83;3.33;;;13.80;58.00;;;;;;5012990;28;20030;-48
2021/01/17 05:44:48;;;;;;;3.80;3.30;;;13.80;58.10;;;;;;5012793;28;20125;-47
2021/01/17 05:47:18;;;;;;;4.45;2.95;;;13.80;58.00;;;;;;5012292;28;20014;-48
2021/01/17 05:49:44;;;;;;;3.63;2.80;;;13.80;58.10;;;;;;5012702;28;20038;-47
2021/01/17 05:52:11;;;;;;;4.53;3.03;;;13.80;58.10;;;;;;5012632;28;20121;-47
2021/01/17 05:54:39;;;;;;;3.45;3.05;;;13.80;58.10;;;;;;5012752;28;20421;-47
2021/01/17 05:57:22;;;;;;;2.78;2.55;;;13.80;58.10;;;;;;5012721;28;20108;-47
2021/01/17 05:59:48;;;;;;;2.83;2.63;;;13.70;58.00;;;;;;5012614;28;20034;-50
2021/01/17 06:02:19;;;;;;;3.13;2.83;;;13.70;58.10;;;;;;4995157;28;20045;-47
2021/01/17 06:04:56;;;;;;;2.75;2.45;;;13.60;58.10;;;;;;5012562;28;20021;-47
2021/01/17 06:07:23;;;;;;;3.45;2.95;;;13.70;58.40;;;;;;5005902;28;20022;-46
2021/01/17 06:09:56;;;;;;;3.38;2.85;;;13.80;58.50;;;;;;5012362;28;20101;-47
2021/01/17 06:12:35;;;;;;;3.20;2.78;;;13.90;58.40;;;;;;5012562;28;20061;-48
2021/01/17 06:15:19;;;;;;;3.47;2.40;;;13.90;58.20;;;;;;5012549;28;20022;-46
2021/01/17 06:17:47;;;;;;;3.33;2.70;;;14.20;57.90;;;;;;5012268;28;20029;-47
2021/01/17 06:20:25;;;;;;;3.50;2.78;;;14.30;58.50;;;;;;5004398;28;20037;-47
2021/01/17 06:22:59;;;;;;;5.38;2.45;;;14.10;58.20;;;;;;4994971;28;20438;-48
2021/01/17 06:25:29;;;;;;;3.22;2.15;;;14.30;58.10;;;;;;5012101;28;20022;-47
2021/01/17 06:28:14;;;;;;;2.70;2.38;;;14.40;58.20;;;;;;5012176;28;20489;-48
2021/01/17 06:30:40;;;;;;;2.95;2.50;;;14.50;58.20;;;;;;5012117;28;20076;-47
2021/01/17 06:33:06;;;;;;;3.33;2.33;;;14.50;58.00;;;;;;4994729;28;20030;-48
2021/01/17 06:35:34;;;;;;;2.72;2.42;;;14.60;58.00;;;;;;5012355;28;20373;-48
2021/01/17 06:38:20;;;;;;;2.35;2.15;;;14.60;58.00;;;;;;5013332;28;20105;-47
2021/01/17 06:40:47;;;;;;;3.33;2.20;;;14.70;58.00;;;;;;5012072;28;20044;-49
2021/01/17 06:43:14;;;;;;;2.10;1.70;;;14.80;58.00;;;;;;5004251;28;20037;-49
2021/01/17 06:45:44;;;;;;;3.45;2.20;;;14.80;57.90;;;;;;5012209;28;20022;-47
2021/01/17 06:48:30;;;;;;;3.72;2.10;;;14.90;57.90;;;;;;5012249;28;20060;-49
2021/01/17 06:51:23;;;;;;;2.90;2.30;;;14.90;57.80;;;;;;5011486;28;20042;-47
2021/01/17 06:53:55;;;;;;;2.22;1.65;;;14.90;58.40;;;;;;5012094;28;20022;-47
2021/01/17 06:56:21;;;;;;;1.80;1.70;;;14.90;57.70;;;;;;5011672;28;20026;-46
2021/01/17 06:58:50;;;;;;;3.28;2.08;;;14.90;57.60;;;;;;5013702;28;20033;-48
2021/01/17 07:01:16;;;;;;;2.38;1.77;;;14.90;57.60;;;;;;4998137;28;20037;-48
2021/01/17 07:04:09;;;;;;;2.63;1.83;;;14.90;57.50;;;;;;4998151;28;20056;-48
2021/01/17 07:07:06;;;;;;;2.38;1.88;;;14.70;57.40;;;;;;5011016;28;20030;-48
2021/01/17 07:09:48;;;;;;;2.60;1.92;;;14.90;57.40;;;;;;5015534;28;20041;-48
2021/01/17 07:12:38;;;;;;;3.13;1.98;;;14.90;57.50;;;;;;5015589;28;20028;-47
2021/01/17 07:15:09;;;;;;;2.95;1.80;;;14.80;57.40;;;;;;5015783;28;20032;-49
2021/01/17 07:17:37;;;;;;;2.58;1.70;;;14.80;57.40;;;;;;5015298;28;20033;-47
2021/01/17 07:20:12;;;;;;;4.07;1.92;;;14.90;57.50;;;;;;5015274;28;20038;-47
2021/01/17 07:22:42;;;;;;;4.22;2.03;;;14.80;57.50;;;;;;5015344;28;20021;-47
2021/01/17 07:25:09;;;;;;;2.53;1.98;;;14.80;57.60;;;;;;5015590;28;20528;-47
2021/01/17 07:28:13;;;;;;;2.65;1.67;;;14.80;57.60;;;;;;5015390;28;20029;-47
2021/01/17 07:30:39;;;;;;;3.45;1.75;;;14.80;57.50;;;;;;5015282;28;20057;-47
2021/01/17 07:33:06;;;;;;;2.72;1.75;;;14.80;57.40;;;;;;5015179;28;20484;-48
2021/01/17 07:35:43;;;;;;;3.88;1.90;;;14.90;57.50;;;;;;5014961;28;20473;-50
2021/01/17 07:38:20;;;;;;;4.22;2.03;;;14.70;57.30;;;;;;5016225;28;20053;-47
2021/01/17 07:40:57;;;;;;;3.58;1.90;;;14.70;57.40;;;;;;5014843;28;20034;-48
2021/01/17 07:43:44;;;;;;;2.70;1.75;;;14.60;57.50;;;;;;5014901;28;20665;-48
2021/01/17 07:46:15;;;;;;;3.05;1.95;;;14.60;57.50;;;;;;5015059;28;20026;-47
2021/01/17 07:48:42;;;;;;;2.35;1.73;;;14.60;57.60;;;;;;5015118;28;20477;-47
2021/01/17 07:51:13;;;;;;;2.78;1.70;;;14.60;57.70;;;;;;5014792;28;20029;-48
2021/01/17 07:53:38;;;;;;;4.55;1.98;;;14.50;57.60;;;;;;5015021;28;20061;-48
2021/01/17 07:56:16;;;;;;;3.15;2.20;;;14.50;57.70;;;;;;5014905;28;20527;-48
2021/01/17 07:58:51;;;;;;;3.75;2.00;;;14.50;57.70;;;;;;4997462;28;20032;-47
2021/01/17 08:01:32;;;;;;;5.03;2.10;;;14.50;57.80;;;;;;5014896;28;20068;-47
2021/01/17 08:04:04;;;;;;;2.67;1.90;;;14.50;57.90;;;;;;5014711;28;20030;-48
2021/01/17 08:06:36;;;;;;;3.22;1.70;;;14.50;57.80;;;;;;5014663;28;20030;-47
2021/01/17 08:09:05;;;;;;;3.55;2.03;;;14.50;57.80;;;;;;5014448;28;20034;-47
2021/01/17 08:11:49;;;;;;;3.10;2.05;;;14.60;57.90;;;;;;5013800;28;20018;-48
2021/01/17 08:14:35;;;;;;;5.78;2.15;;;14.60;57.90;;;;;;5014699;28;20029;-48
2021/01/17 08:17:12;;;;;;;3.90;1.90;;;14.60;57.90;;;;;;5014558;28;20034;-47
2021/01/17 08:19:53;;;;;;;3.45;1.90;;;14.70;57.90;;;;;;5014168;28;20512;-47
2021/01/17 08:22:21;;;;;;;7.80;2.38;;;14.70;57.80;;;;;;5014510;28;20408;-48
2021/01/17 08:24:49;;;;;;;4.20;2.13;;;14.70;57.80;;;;;;5014598;28;20096;-47
2021/01/17 08:27:33;;;;;;;3.25;2.08;;;14.80;57.80;;;;;;5014456;28;20538;-46
2021/01/17 08:30:08;;;;;;;3.63;1.75;;;14.80;57.70;;;;;;5014221;28;20030;-48
2021/01/17 08:32:49;;;;;;;5.03;2.25;;;14.80;57.70;;;;;;4996564;28;20058;-46
2021/01/17 08:35:20;;;;;;;4.25;2.00;;;14.80;58.10;;;;;;5014316;28;20097;-45
2021/01/17 08:37:53;;;;;;;5.05;2.22;;;14.90;58.10;;;;;;5015260;28;20475;-45
2021/01/17 08:40:28;;;;;;;6.00;2.47;;;14.90;58.00;;;;;;5014125;28;20030;-45
2021/01/17 08:42:57;;;;;;;3.88;2.28;;;14.90;57.90;;;;;;5014096;28;20405;-45
2021/01/17 08:45:23;;;;;;;4.07;2.30;;;15.00;57.90;;;;;;4996268;28;20026;-46
2021/01/17 08:47:57;;;;;;;5.47;2.40;;;14.90;57.80;;;;;;5013955;28;20084;-45
2021/01/17 08:50:32;;;;;;;6.20;2.70;;;14.90;57.70;;;;;;5013979;28;20064;-45
2021/01/17 08:53:20;;;;;;;6.43;2.40;;;14.90;57.90;;;;;;5013901;28;20033;-46
2021/01/17 08:55:48;;;;;;;4.82;2.45;;;14.90;57.90;;;;;;5012877;28;20053;-46
2021/01/17 08:58:24;;;;;;;7.88;2.78;;;14.50;57.50;;;;;;5013564;28;20100;-45
2021/01/17 09:00:53;;;;;;;9.10;4.00;;;14.90;57.60;;;;;;5013476;28;20060;-45
2021/01/17 09:03:41;;;;;;;7.60;3.50;;;15.00;57.50;;;;;;5013492;28;20108;-45
2021/01/17 09:06:12;;;;;;;8.20;3.92;;;15.00;57.50;;;;;;5013586;28;20471;-46
2021/01/17 09:08:40;;;;;;;8.68;3.15;;;15.20;57.10;;;;;;5013411;28;20030;-45
2021/01/17 09:11:28;;;;;;;7.07;3.40;;;15.40;56.60;;;;;;5013554;28;20021;-44
2021/01/17 09:14:15;;;;;;;9.60;3.65;;;15.70;56.00;;;;;;5013303;28;20030;-45
2021/01/17 09:16:42;;;;;;;8.27;3.03;;;15.90;55.40;;;;;;5013603;28;20080;-45
2021/01/17 09:19:08;;;;;;;8.50;3.38;;;16.10;55.00;;;;;;5013214;28;20045;-45
2021/01/17 09:21:34;;;;;;;11.00;3.42;;;16.30;55.30;;;;;;5013194;28;20030;-46
2021/01/17 09:24:10;;;;;;;6.72;3.17;;;16.40;54.20;;;;;;5013159;28;20065;-45
2021/01/17 09:26:46;;;;;;;6.93;3.10;;;16.60;54.00;;;;;;4996125;28;20382;-45
2021/01/17 09:29:29;;;;;;;7.68;3.42;;;16.70;53.80;;;;;;5013221;28;20047;-46
2021/01/17 09:32:00;;;;;;;6.18;3.15;;;16.70;53.40;;;;;;5013012;28;20025;-45
2021/01/17 09:34:29;;;;;;;8.90;2.67;;;16.70;53.50;;;;;;5012972;28;20389;-47
2021/01/17 09:36:56;;;;;;;7.80;2.90;;;16.80;53.60;;;;;;5014092;28;20377;-46
2021/01/17 09:39:31;;;;;;;5.28;2.42;;;16.80;53.30;;;;;;5013099;28;20030;-46
2021/01/17 09:41:57;;;;;;;7.43;2.92;;;16.90;53.00;;;;;;5013232;28;20108;-45
2021/01/17 09:44:23;;;;;;;8.13;2.88;;;16.80;52.90;;;;;;5013141;28;20044;-47
2021/01/17 09:46:48;;;;;;;7.05;2.63;;;16.70;53.00;;;;;;4995137;28;20033;-46
2021/01/17 09:49:14;;;;;;;7.45;2.67;;;17.00;53.10;;;;;;5013003;28;20033;-45
2021/01/17 09:51:45;;;;;;;7.60;2.72;;;16.80;52.80;;;;;;5012906;28;20022;-45
2021/01/17 09:54:11;;;;;;;5.35;3.10;;;16.90;67.20;;;;;;5012766;28;20084;-46
2021/01/17 09:56:40;;;;;;;10.02;2.97;;;16.70;52.80;;;;;;4995295;28;20061;-46
2021/01/17 09:59:19;;;;;;;9.38;3.10;;;17.00;52.50;;;;;;4994771;28;20178;-45
2021/01/17 10:01:46;;;;;;;8.15;2.90;;;17.10;52.20;;;;;;5012567;28;20033;-45
2021/01/17 10:04:27;;;;;;;6.55;2.72;;;17.10;52.10;;;;;;5012809;28;20109;-45
2021/01/17 10:06:55;;;;;;;7.97;2.75;;;17.20;52.10;;;;;;5012644;28;20033;-47
2021/01/17 10:09:22;;;;;;;6.13;2.17;;;17.30;51.80;;;;;;5012495;28;20021;-46
2021/01/17 10:12:00;;;;;;;6.70;2.40;;;17.30;51.60;;;;;;5012509;28;20028;-45
2021/01/17 10:14:31;;;;;;;5.78;2.33;;;17.30;51.60;;;;;;5012284;28;20021;-45
2021/01/17 10:16:58;;;;;;;6.15;2.20;;;17.20;51.80;;;;;;5012345;28;20022;-46
2021/01/17 10:19:29;;;;;;;6.20;2.28;;;17.20;51.90;;;;;;5012305;28;20109;-46
2021/01/17 10:21:55;;;;;;;6.30;2.17;;;17.10;51.90;;;;;;5012278;28;20103;-46
2021/01/17 10:24:26;;;;;;;5.30;2.58;;;17.00;52.00;;;;;;5012385;28;20092;-45
2021/01/17 10:26:52;;;;;;;;;;;17.00;52.30;;;;;;4995011;28;20427;-46
2021/01/17 10:29:20;;;;;;;7.00;2.00;;;16.90;52.20;;;;;;5010272;28;19972;-45
2021/01/17 10:31:50;;;;;;;7.32;2.53;;;16.90;52.40;;;;;;5011759;28;20053;-45
2021/01/17 10:34:27;;;;;;;7.18;2.67;;;16.80;52.50;;;;;;5011017;28;20068;-46
2021/01/17 10:37:01;;;;;;;6.10;2.50;;;16.80;52.50;;;;;;5012041;28;20018;-45
2021/01/17 10:39:29;;;;;;;7.20;2.30;;;16.80;52.40;;;;;;5012280;28;20129;-45
2021/01/17 10:42:24;;;;;;;6.90;2.10;;;16.80;52.40;;;;;;5011961;28;20040;-46
2021/01/17 10:45:12;;;;;;;8.25;2.90;;;16.70;52.40;;;;;;5012071;28;20033;-46
2021/01/17 10:47:44;;;;;;;6.20;2.03;;;16.80;52.40;;;;;;5012022;28;20026;-46
2021/01/17 10:50:12;;;;;;;6.88;2.15;;;16.80;52.20;;;;;;5012221;28;20415;-46
2021/01/17 10:52:42;;;;;;;8.63;2.25;;;16.80;52.30;;;;;;5012045;28;20388;-45
2021/01/17 10:55:13;;;;;;;9.10;2.60;;;16.80;52.30;;;;;;5011863;28;20477;-45
2021/01/17 10:57:41;;;;;;;5.93;2.13;;;16.70;52.20;;;;;;4994785;28;20034;-47
2021/01/17 11:00:08;;;;;;;6.18;2.10;;;16.80;52.10;;;;;;5011840;28;20081;-45
2021/01/17 11:02:34;;;;;;;5.93;2.20;;;16.80;52.10;;;;;;5012075;28;20120;-46
2021/01/17 11:04:59;;;;;;;6.55;2.20;;;16.70;52.10;;;;;;5011689;28;20556;-45
2021/01/17 11:07:27;;;;;;;5.65;2.03;;;16.80;52.20;;;;;;5011632;28;20022;-46
2021/01/17 11:09:53;;;;;;;9.80;2.38;;;16.80;52.00;;;;;;5011995;28;20069;-46
2021/01/17 11:12:38;;;;;;;6.43;2.45;;;16.70;52.00;;;;;;5011910;28;20029;-46
2021/01/17 11:15:08;;;;;;;6.55;2.25;;;16.70;52.10;;;;;;5011901;28;20022;-46
2021/01/17 11:17:35;;;;;;;7.97;2.03;;;16.70;52.20;;;;;;5011637;28;20036;-47
2021/01/17 11:20:07;;;;;;;7.97;2.80;;;16.70;52.10;;;;;;5011822;28;20046;-45
2021/01/17 11:22:33;;;;;;;8.88;2.63;;;16.70;52.00;;;;;;5011933;28;20097;-45
2021/01/17 11:24:59;;;;;;;6.68;2.40;;;16.70;52.10;;;;;;5011691;28;20256;-47
2021/01/17 11:27:36;;;;;;;5.72;2.25;;;16.70;52.20;;;;;;5011880;28;20555;-47
2021/01/17 11:30:04;;;;;;;6.25;2.30;;;16.60;52.00;;;;;;5011942;28;20063;-45
2021/01/17 11:32:33;;;;;;;7.05;2.30;;;16.60;52.00;;;;;;5011738;28;20029;-46
2021/01/17 11:34:58;;;;;;;6.57;2.08;;;16.60;52.20;;;;;;4993911;28;20666;-46
2021/01/17 11:37:37;;;;;;;7.45;3.38;;;16.60;52.30;;;;;;5012454;28;20052;-46
2021/01/17 11:40:08;;;;;;;7.68;1.95;;;16.70;52.20;;;;;;4993808;28;20052;-45
2021/01/17 11:42:34;;;;;;;7.00;2.25;;;16.60;52.00;;;;;;5011559;28;20080;-45
2021/01/17 11:45:13;;;;;;;5.22;2.05;;;16.60;52.10;;;;;;5011993;28;20022;-45
2021/01/17 11:47:42;;;;;;;7.80;2.10;;;16.60;52.20;;;;;;5015159;28;20121;-46
2021/01/17 11:50:38;;;;;;;5.60;2.00;;;16.70;52.10;;;;;;5015015;28;20026;-45
2021/01/17 11:53:07;;;;;;;8.07;2.72;;;16.60;51.90;;;;;;5013588;28;20088;-46
2021/01/17 11:55:33;;;;;;;5.55;2.20;;;16.70;52.20;;;;;;5014847;28;20025;-45
2021/01/17 11:58:15;;;;;;;6.30;1.83;;;16.60;52.10;;;;;;5014852;28;20034;-46
2021/01/17 12:00:47;;;;;;;5.25;1.75;;;16.60;52.00;;;;;;5014631;28;20387;-46
2021/01/17 12:03:43;;;;;;;6.85;1.90;;;16.70;52.00;;;;;;5014794;28;20026;-46
2021/01/17 12:06:17;;;;;;;8.30;2.22;;;16.70;52.00;;;;;;5014837;28;20037;-45
2021/01/17 12:08:56;;;;;;;5.85;1.60;;;16.70;51.80;;;;;;5014662;28;20045;-45
2021/01/17 12:11:30;;;;;;;3.50;1.43;;;16.60;51.60;;;;;;5014481;28;20109;-47
2021/01/17 12:13:56;;;;;;;6.00;2.03;;;16.60;51.80;;;;;;5014629;28;20454;-45
2021/01/17 12:16:32;;;;;;;4.32;1.90;;;16.70;51.90;;;;;;5014653;28;20025;-46
2021/01/17 12:18:59;;;;;;;5.45;2.25;;;16.60;51.70;;;;;;4996960;28;20033;-45
2021/01/17 12:21:26;;;;;;;7.05;2.22;;;16.60;51.70;;;;;;5014286;28;20041;-46
2021/01/17 12:23:52;;;;;;;4.95;1.70;;;16.50;51.70;;;;;;5014534;28;20044;-46
2021/01/17 12:26:19;;;;;;;6.18;1.85;;;16.50;51.90;;;;;;5014146;28;20472;-46
2021/01/17 12:28:45;;;;;;;7.57;1.90;;;16.50;51.90;;;;;;5014064;28;20599;-46
2021/01/17 12:31:15;;;;;;;4.60;1.50;;;16.40;51.70;;;;;;5014317;28;20353;-46
2021/01/17 12:33:41;;;;;;;4.25;1.67;;;16.40;51.70;;;;;;4996411;28;20026;-47
2021/01/17 12:36:11;;;;;;;4.60;2.08;;;16.40;51.80;;;;;;5014068;28;20033;-46
2021/01/17 12:38:37;;;;;;;;;;;16.40;51.70;;;;;;5015641;28;20074;-45
2021/01/17 12:41:07;;;;;;;5.72;1.55;;;16.40;51.70;;;;;;5013710;28;20387;-45
2021/01/17 12:43:33;;;;;;;3.28;1.33;;;16.40;51.70;;;;;;5013893;28;20054;-46
2021/01/17 12:45:59;;;;;;;4.57;1.45;;;16.40;51.70;;;;;;5014023;28;20072;-46
2021/01/17 12:48:25;;;;;;;5.68;1.77;;;16.50;51.80;;;;;;5013676;28;20026;-45
2021/01/17 12:50:50;;;;;;;5.15;1.50;;;16.60;51.60;;;;;;5012457;28;20022;-45
2021/01/17 12:53:16;;;;;;;5.35;1.90;;;16.60;51.70;;;;;;5012386;28;20493;-45
2021/01/17 12:55:46;;;;;;;5.90;1.50;;;16.60;51.80;;;;;;5012121;28;20072;-45
2021/01/17 12:58:12;;;;;;;4.53;1.52;;;16.70;51.80;;;;;;5012390;28;20041;-46
2021/01/17 13:00:38;;;;;;;2.72;1.00;;;16.80;51.70;;;;;;5012322;28;20034;-46
2021/01/17 13:03:05;;;;;;;3.00;1.52;;;16.80;51.60;;;;;;5012536;28;20373;-45
2021/01/17 13:05:30;;;;;;;4.40;1.83;;;16.90;51.70;;;;;;5013221;28;20518;-45